This is the latest recevied weather packets stored in our database for station/object IU2PLZ-10. If no packets are shown the sender has not sent any weather packets the latest 10 day(s).
| Time | Temp. | Humidity | Pressure | Rain* | Wind** | Luminosity | Snow |
|---|---|---|---|---|---|---|---|
| 1777824155 | 20.56° C | 48% | 969.1 hPa | - | - | - | - |
| 1777823255 | 20.56° C | 47% | 969.2 hPa | - | - | - | - |
| 1777822355 | 21.11° C | 45% | 969.2 hPa | - | - | - | - |
| 1777821454 | 21.67° C | 43% | 968.4 hPa | - | - | - | - |
| 1777820554 | 22.22° C | 42% | 968.5 hPa | - | - | - | - |
| 1777819654 | 22.78° C | 40% | 968.4 hPa | - | - | - | - |
| 1777818754 | 23.33° C | 39% | 969.2 hPa | - | - | - | - |
| 1777817854 | 23.89° C | 39% | 969.4 hPa | - | - | - | - |
| 1777816954 | 24.44° C | 40% | 969.5 hPa | - | - | - | - |
| 1777816053 | 24.44° C | 40% | 968.8 hPa | - | - | - | - |
| 1777815153 | 22.78° C | 40% | 966.3 hPa | - | - | - | - |
| 1777814253 | 25.56° C | 40% | 970.1 hPa | - | - | - | - |
| 1777813353 | 25.56° C | 40% | 970.2 hPa | - | - | - | - |
| 1777812453 | 25° C | 42% | 970.2 hPa | - | - | - | - |
| 1777811553 | 24.44° C | 42% | 970.3 hPa | - | - | - | - |
| 1777810655 | 23.89° C | 44% | 970.5 hPa | - | - | - | - |
| 1777809752 | 23.33° C | 45% | 970.4 hPa | - | - | - | - |
| 1777808848 | 22.78° C | 44% | 970.8 hPa | - | - | - | - |
| 1777807945 | 23.33° C | 45% | 970.8 hPa | - | - | - | - |
| 1777807041 | 22.78° C | 44% | 970.5 hPa | - | - | - | - |
| 1777806138 | 23.33° C | 43% | 970.7 hPa | - | - | - | - |
| 1777805234 | 24.44° C | 41% | 970.1 hPa | - | - | - | - |
| 1777804331 | 23.89° C | 42% | 970.1 hPa | - | - | - | - |
| 1777803429 | 25.56° C | 41% | 971 hPa | - | - | - | - |
| 1777802529 | 25° C | 43% | 970.9 hPa | - | - | - | - |
* Rain since midnight (hover to see other rain measurements)
** Current wind speed in m/s (hover to see current wind gust speed)